sensor_id;sensor_type;location;lat;lon;timestamp;P1;durP1;ratioP1;P2;durP2;ratioP2
4057;SDS011;2044;48.692;9.020;2022-12-08T00:01:23;17.70;;;9.23;;
4057;SDS011;2044;48.692;9.020;2022-12-08T00:03:52;19.60;;;9.83;;
4057;SDS011;2044;48.692;9.020;2022-12-08T00:06:21;13.83;;;7.67;;
4057;SDS011;2044;48.692;9.020;2022-12-08T00:09:10;24.63;;;8.67;;
4057;SDS011;2044;48.692;9.020;2022-12-08T00:11:55;17.60;;;9.60;;
4057;SDS011;2044;48.692;9.020;2022-12-08T00:14:25;22.57;;;9.00;;
4057;SDS011;2044;48.692;9.020;2022-12-08T00:16:53;22.20;;;9.23;;
4057;SDS011;2044;48.692;9.020;2022-12-08T00:19:21;16.53;;;8.30;;
4057;SDS011;2044;48.692;9.020;2022-12-08T00:21:48;19.00;;;9.47;;
4057;SDS011;2044;48.692;9.020;2022-12-08T00:24:15;16.97;;;9.30;;
4057;SDS011;2044;48.692;9.020;2022-12-08T00:26:42;17.13;;;8.37;;
4057;SDS011;2044;48.692;9.020;2022-12-08T00:29:09;19.33;;;9.57;;
4057;SDS011;2044;48.692;9.020;2022-12-08T00:31:38;17.57;;;8.70;;
4057;SDS011;2044;48.692;9.020;2022-12-08T00:34:05;15.70;;;9.07;;
4057;SDS011;2044;48.692;9.020;2022-12-08T00:36:32;21.17;;;9.80;;
4057;SDS011;2044;48.692;9.020;2022-12-08T00:38:59;30.00;;;12.07;;
4057;SDS011;2044;48.692;9.020;2022-12-08T00:41:27;28.60;;;11.30;;
4057;SDS011;2044;48.692;9.020;2022-12-08T00:44:12;23.03;;;10.60;;
4057;SDS011;2044;48.692;9.020;2022-12-08T00:46:41;23.93;;;9.87;;
4057;SDS011;2044;48.692;9.020;2022-12-08T00:49:08;19.73;;;9.97;;
4057;SDS011;2044;48.692;9.020;2022-12-08T00:51:35;19.90;;;10.27;;
4057;SDS011;2044;48.692;9.020;2022-12-08T00:54:02;16.37;;;9.40;;
4057;SDS011;2044;48.692;9.020;2022-12-08T00:56:29;18.20;;;10.37;;
4057;SDS011;2044;48.692;9.020;2022-12-08T00:58:55;25.83;;;9.83;;
4057;SDS011;2044;48.692;9.020;2022-12-08T01:01:22;22.47;;;10.87;;
4057;SDS011;2044;48.692;9.020;2022-12-08T01:03:51;18.20;;;9.00;;
4057;SDS011;2044;48.692;9.020;2022-12-08T01:06:18;16.50;;;9.17;;
4057;SDS011;2044;48.692;9.020;2022-12-08T01:08:44;22.50;;;9.90;;
4057;SDS011;2044;48.692;9.020;2022-12-08T01:11:12;29.83;;;12.60;;
4057;SDS011;2044;48.692;9.020;2022-12-08T01:13:41;25.20;;;10.73;;
4057;SDS011;2044;48.692;9.020;2022-12-08T01:16:08;20.00;;;10.17;;
4057;SDS011;2044;48.692;9.020;2022-12-08T01:18:35;18.20;;;9.33;;
4057;SDS011;2044;48.692;9.020;2022-12-08T01:21:04;24.37;;;11.00;;
4057;SDS011;2044;48.692;9.020;2022-12-08T01:23:32;15.40;;;9.30;;
4057;SDS011;2044;48.692;9.020;2022-12-08T01:26:03;20.40;;;9.60;;
4057;SDS011;2044;48.692;9.020;2022-12-08T01:28:30;17.53;;;9.37;;
4057;SDS011;2044;48.692;9.020;2022-12-08T01:30:58;18.47;;;9.87;;
4057;SDS011;2044;48.692;9.020;2022-12-08T01:33:26;24.20;;;10.37;;
4057;SDS011;2044;48.692;9.020;2022-12-08T01:35:53;18.03;;;8.90;;
4057;SDS011;2044;48.692;9.020;2022-12-08T01:38:21;19.03;;;10.27;;
4057;SDS011;2044;48.692;9.020;2022-12-08T01:40:48;22.60;;;10.90;;
4057;SDS011;2044;48.692;9.020;2022-12-08T01:43:15;21.53;;;10.43;;
4057;SDS011;2044;48.692;9.020;2022-12-08T01:45:44;23.20;;;10.40;;
4057;SDS011;2044;48.692;9.020;2022-12-08T01:48:13;25.53;;;10.23;;
4057;SDS011;2044;48.692;9.020;2022-12-08T01:50:44;21.53;;;11.20;;
4057;SDS011;2044;48.692;9.020;2022-12-08T01:53:13;16.70;;;9.03;;
4057;SDS011;2044;48.692;9.020;2022-12-08T01:55:47;17.23;;;8.63;;
4057;SDS011;2044;48.692;9.020;2022-12-08T01:58:17;16.67;;;9.87;;
4057;SDS011;2044;48.692;9.020;2022-12-08T02:00:48;13.90;;;7.40;;
4057;SDS011;2044;48.692;9.020;2022-12-08T02:03:17;18.37;;;8.37;;
4057;SDS011;2044;48.692;9.020;2022-12-08T02:05:48;23.23;;;10.47;;
4057;SDS011;2044;48.692;9.020;2022-12-08T02:08:17;19.77;;;9.70;;
4057;SDS011;2044;48.692;9.020;2022-12-08T02:10:45;25.80;;;9.63;;
4057;SDS011;2044;48.692;9.020;2022-12-08T02:13:15;21.53;;;8.67;;
4057;SDS011;2044;48.692;9.020;2022-12-08T02:15:45;22.43;;;10.83;;
4057;SDS011;2044;48.692;9.020;2022-12-08T02:18:23;19.23;;;9.10;;
4057;SDS011;2044;48.692;9.020;2022-12-08T02:21:02;18.40;;;9.83;;
4057;SDS011;2044;48.692;9.020;2022-12-08T02:23:35;19.60;;;9.77;;
4057;SDS011;2044;48.692;9.020;2022-12-08T02:29:30;18.93;;;9.87;;
4057;SDS011;2044;48.692;9.020;2022-12-08T02:32:19;21.10;;;9.70;;
4057;SDS011;2044;48.692;9.020;2022-12-08T02:35:04;25.70;;;10.93;;
4057;SDS011;2044;48.692;9.020;2022-12-08T02:37:36;25.63;;;9.13;;
4057;SDS011;2044;48.692;9.020;2022-12-08T02:40:10;19.10;;;9.10;;
4057;SDS011;2044;48.692;9.020;2022-12-08T02:42:43;19.40;;;8.73;;
4057;SDS011;2044;48.692;9.020;2022-12-08T02:45:13;18.70;;;8.87;;
4057;SDS011;2044;48.692;9.020;2022-12-08T02:47:45;21.50;;;8.77;;
4057;SDS011;2044;48.692;9.020;2022-12-08T02:50:14;14.50;;;9.27;;
4057;SDS011;2044;48.692;9.020;2022-12-08T02:52:42;19.20;;;9.50;;
4057;SDS011;2044;48.692;9.020;2022-12-08T02:55:12;17.40;;;8.37;;
4057;SDS011;2044;48.692;9.020;2022-12-08T02:57:47;15.60;;;8.30;;
4057;SDS011;2044;48.692;9.020;2022-12-08T03:00:26;19.30;;;9.77;;
4057;SDS011;2044;48.692;9.020;2022-12-08T03:02:59;15.10;;;7.80;;
4057;SDS011;2044;48.692;9.020;2022-12-08T03:05:40;16.87;;;9.10;;
4057;SDS011;2044;48.692;9.020;2022-12-08T03:08:17;23.67;;;9.57;;
4057;SDS011;2044;48.692;9.020;2022-12-08T03:10:49;17.40;;;8.83;;
4057;SDS011;2044;48.692;9.020;2022-12-08T03:13:21;17.10;;;9.00;;
4057;SDS011;2044;48.692;9.020;2022-12-08T03:15:53;20.10;;;7.63;;
4057;SDS011;2044;48.692;9.020;2022-12-08T03:18:22;20.50;;;9.00;;
4057;SDS011;2044;48.692;9.020;2022-12-08T03:20:55;15.00;;;8.50;;
4057;SDS011;2044;48.692;9.020;2022-12-08T03:23:21;18.63;;;8.20;;
4057;SDS011;2044;48.692;9.020;2022-12-08T03:25:50;18.10;;;8.60;;
4057;SDS011;2044;48.692;9.020;2022-12-08T03:28:21;19.57;;;8.73;;
4057;SDS011;2044;48.692;9.020;2022-12-08T03:30:48;17.97;;;8.80;;
4057;SDS011;2044;48.692;9.020;2022-12-08T03:33:22;16.67;;;7.33;;
4057;SDS011;2044;48.692;9.020;2022-12-08T03:35:52;18.80;;;9.07;;
4057;SDS011;2044;48.692;9.020;2022-12-08T03:38:21;18.47;;;8.13;;
4057;SDS011;2044;48.692;9.020;2022-12-08T03:40:48;14.50;;;8.70;;
4057;SDS011;2044;48.692;9.020;2022-12-08T03:43:29;17.33;;;8.70;;
4057;SDS011;2044;48.692;9.020;2022-12-08T03:45:56;17.77;;;11.40;;
4057;SDS011;2044;48.692;9.020;2022-12-08T03:48:22;15.57;;;7.43;;
4057;SDS011;2044;48.692;9.020;2022-12-08T03:50:49;21.20;;;9.60;;
4057;SDS011;2044;48.692;9.020;2022-12-08T03:53:17;16.73;;;8.70;;
4057;SDS011;2044;48.692;9.020;2022-12-08T03:55:44;20.23;;;10.10;;
4057;SDS011;2044;48.692;9.020;2022-12-08T03:58:11;22.23;;;9.43;;
4057;SDS011;2044;48.692;9.020;2022-12-08T04:00:37;20.10;;;10.43;;
4057;SDS011;2044;48.692;9.020;2022-12-08T04:03:04;18.93;;;9.30;;
4057;SDS011;2044;48.692;9.020;2022-12-08T04:05:31;19.87;;;9.33;;
4057;SDS011;2044;48.692;9.020;2022-12-08T04:07:58;20.10;;;9.50;;
4057;SDS011;2044;48.692;9.020;2022-12-08T04:10:26;19.50;;;9.50;;
4057;SDS011;2044;48.692;9.020;2022-12-08T04:12:53;18.13;;;7.77;;
4057;SDS011;2044;48.692;9.020;2022-12-08T04:15:21;18.07;;;8.60;;
4057;SDS011;2044;48.692;9.020;2022-12-08T04:17:48;16.57;;;8.23;;
4057;SDS011;2044;48.692;9.020;2022-12-08T04:20:14;17.30;;;7.50;;
4057;SDS011;2044;48.692;9.020;2022-12-08T04:22:41;15.23;;;8.33;;
4057;SDS011;2044;48.692;9.020;2022-12-08T04:25:08;18.93;;;7.83;;
4057;SDS011;2044;48.692;9.020;2022-12-08T04:27:36;16.17;;;6.80;;
4057;SDS011;2044;48.692;9.020;2022-12-08T04:30:03;16.00;;;6.80;;
4057;SDS011;2044;48.692;9.020;2022-12-08T04:32:31;14.63;;;7.70;;
4057;SDS011;2044;48.692;9.020;2022-12-08T04:34:58;19.27;;;6.73;;
4057;SDS011;2044;48.692;9.020;2022-12-08T04:37:25;16.50;;;8.13;;
4057;SDS011;2044;48.692;9.020;2022-12-08T04:39:53;18.97;;;8.80;;
4057;SDS011;2044;48.692;9.020;2022-12-08T04:42:20;15.00;;;8.90;;
4057;SDS011;2044;48.692;9.020;2022-12-08T04:44:48;22.23;;;8.10;;
4057;SDS011;2044;48.692;9.020;2022-12-08T04:47:14;19.80;;;9.17;;
4057;SDS011;2044;48.692;9.020;2022-12-08T04:49:41;20.00;;;9.27;;
4057;SDS011;2044;48.692;9.020;2022-12-08T04:52:08;17.10;;;9.40;;
4057;SDS011;2044;48.692;9.020;2022-12-08T04:54:35;21.90;;;8.90;;
4057;SDS011;2044;48.692;9.020;2022-12-08T04:57:02;14.10;;;7.37;;
4057;SDS011;2044;48.692;9.020;2022-12-08T04:59:28;15.93;;;8.43;;
4057;SDS011;2044;48.692;9.020;2022-12-08T05:01:56;19.40;;;9.23;;
4057;SDS011;2044;48.692;9.020;2022-12-08T05:04:23;22.40;;;9.97;;
4057;SDS011;2044;48.692;9.020;2022-12-08T05:06:50;18.47;;;8.77;;
4057;SDS011;2044;48.692;9.020;2022-12-08T05:09:17;17.23;;;8.33;;
4057;SDS011;2044;48.692;9.020;2022-12-08T05:11:43;23.97;;;8.87;;
4057;SDS011;2044;48.692;9.020;2022-12-08T05:14:11;22.57;;;9.43;;
4057;SDS011;2044;48.692;9.020;2022-12-08T05:16:39;17.70;;;7.77;;
4057;SDS011;2044;48.692;9.020;2022-12-08T05:19:07;11.20;;;6.50;;
4057;SDS011;2044;48.692;9.020;2022-12-08T05:21:34;14.00;;;7.80;;
4057;SDS011;2044;48.692;9.020;2022-12-08T05:24:01;14.83;;;7.13;;
4057;SDS011;2044;48.692;9.020;2022-12-08T05:26:28;13.60;;;7.03;;
4057;SDS011;2044;48.692;9.020;2022-12-08T05:28:55;21.07;;;8.40;;
4057;SDS011;2044;48.692;9.020;2022-12-08T05:31:21;21.73;;;8.80;;
4057;SDS011;2044;48.692;9.020;2022-12-08T05:33:50;16.83;;;8.07;;
4057;SDS011;2044;48.692;9.020;2022-12-08T05:36:19;14.67;;;7.60;;
4057;SDS011;2044;48.692;9.020;2022-12-08T05:38:46;15.80;;;7.77;;
4057;SDS011;2044;48.692;9.020;2022-12-08T05:41:13;21.03;;;7.20;;
4057;SDS011;2044;48.692;9.020;2022-12-08T05:43:41;15.43;;;8.27;;
4057;SDS011;2044;48.692;9.020;2022-12-08T05:46:08;14.80;;;7.77;;
4057;SDS011;2044;48.692;9.020;2022-12-08T05:48:35;13.90;;;7.73;;
4057;SDS011;2044;48.692;9.020;2022-12-08T05:51:02;16.63;;;6.80;;
4057;SDS011;2044;48.692;9.020;2022-12-08T05:53:31;16.70;;;8.40;;
4057;SDS011;2044;48.692;9.020;2022-12-08T05:55:58;14.13;;;7.23;;
4057;SDS011;2044;48.692;9.020;2022-12-08T05:58:25;14.73;;;8.07;;
4057;SDS011;2044;48.692;9.020;2022-12-08T06:00:51;15.80;;;9.20;;
4057;SDS011;2044;48.692;9.020;2022-12-08T06:03:18;18.60;;;9.30;;
4057;SDS011;2044;48.692;9.020;2022-12-08T06:05:45;17.63;;;7.70;;
4057;SDS011;2044;48.692;9.020;2022-12-08T06:08:12;17.20;;;8.20;;
4057;SDS011;2044;48.692;9.020;2022-12-08T06:10:41;14.50;;;7.70;;
4057;SDS011;2044;48.692;9.020;2022-12-08T06:13:09;13.67;;;7.63;;
4057;SDS011;2044;48.692;9.020;2022-12-08T06:15:36;16.13;;;7.13;;
4057;SDS011;2044;48.692;9.020;2022-12-08T06:18:03;13.77;;;6.00;;
4057;SDS011;2044;48.692;9.020;2022-12-08T06:20:31;18.00;;;8.20;;
4057;SDS011;2044;48.692;9.020;2022-12-08T06:22:58;13.60;;;6.93;;
4057;SDS011;2044;48.692;9.020;2022-12-08T06:25:24;13.97;;;6.80;;
4057;SDS011;2044;48.692;9.020;2022-12-08T06:27:52;28.57;;;14.90;;
4057;SDS011;2044;48.692;9.020;2022-12-08T06:30:19;17.90;;;9.00;;
4057;SDS011;2044;48.692;9.020;2022-12-08T06:32:46;16.10;;;8.70;;
4057;SDS011;2044;48.692;9.020;2022-12-08T06:35:13;16.90;;;8.20;;
4057;SDS011;2044;48.692;9.020;2022-12-08T06:37:39;18.17;;;8.90;;
4057;SDS011;2044;48.692;9.020;2022-12-08T06:40:07;13.03;;;7.50;;
4057;SDS011;2044;48.692;9.020;2022-12-08T06:42:34;25.43;;;15.83;;
4057;SDS011;2044;48.692;9.020;2022-12-08T06:45:12;18.13;;;9.57;;
4057;SDS011;2044;48.692;9.020;2022-12-08T06:47:41;36.10;;;22.07;;
4057;SDS011;2044;48.692;9.020;2022-12-08T06:50:08;85.60;;;39.33;;
4057;SDS011;2044;48.692;9.020;2022-12-08T06:52:36;26.53;;;12.60;;
4057;SDS011;2044;48.692;9.020;2022-12-08T06:55:05;21.60;;;11.60;;
4057;SDS011;2044;48.692;9.020;2022-12-08T06:57:32;28.53;;;14.93;;
4057;SDS011;2044;48.692;9.020;2022-12-08T06:59:59;27.50;;;14.50;;
4057;SDS011;2044;48.692;9.020;2022-12-08T07:02:27;25.73;;;8.70;;
4057;SDS011;2044;48.692;9.020;2022-12-08T07:04:53;18.43;;;9.43;;
4057;SDS011;2044;48.692;9.020;2022-12-08T07:07:20;19.20;;;9.00;;
4057;SDS011;2044;48.692;9.020;2022-12-08T07:09:47;15.97;;;8.33;;
4057;SDS011;2044;48.692;9.020;2022-12-08T07:12:14;24.40;;;9.43;;
4057;SDS011;2044;48.692;9.020;2022-12-08T07:14:40;14.17;;;7.53;;
4057;SDS011;2044;48.692;9.020;2022-12-08T07:17:07;19.17;;;8.03;;
4057;SDS011;2044;48.692;9.020;2022-12-08T07:19:35;23.73;;;10.60;;
4057;SDS011;2044;48.692;9.020;2022-12-08T07:22:02;24.23;;;11.73;;
4057;SDS011;2044;48.692;9.020;2022-12-08T07:24:29;24.40;;;11.27;;
4057;SDS011;2044;48.692;9.020;2022-12-08T07:26:55;23.87;;;10.57;;
4057;SDS011;2044;48.692;9.020;2022-12-08T07:29:22;40.77;;;18.43;;
4057;SDS011;2044;48.692;9.020;2022-12-08T07:31:49;27.20;;;11.20;;
4057;SDS011;2044;48.692;9.020;2022-12-08T07:34:15;15.53;;;8.80;;
4057;SDS011;2044;48.692;9.020;2022-12-08T07:36:43;24.57;;;10.40;;
4057;SDS011;2044;48.692;9.020;2022-12-08T07:39:10;24.23;;;11.17;;
4057;SDS011;2044;48.692;9.020;2022-12-08T07:41:37;9.47;;;5.17;;
4057;SDS011;2044;48.692;9.020;2022-12-08T07:44:04;18.50;;;9.20;;
4057;SDS011;2044;48.692;9.020;2022-12-08T07:46:30;36.10;;;13.73;;
4057;SDS011;2044;48.692;9.020;2022-12-08T07:48:57;54.00;;;24.60;;
4057;SDS011;2044;48.692;9.020;2022-12-08T07:51:24;49.77;;;21.87;;
4057;SDS011;2044;48.692;9.020;2022-12-08T07:53:52;67.80;;;30.53;;
4057;SDS011;2044;48.692;9.020;2022-12-08T07:56:19;27.67;;;11.17;;
4057;SDS011;2044;48.692;9.020;2022-12-08T07:58:46;28.07;;;12.63;;
4057;SDS011;2044;48.692;9.020;2022-12-08T08:01:23;36.73;;;11.20;;
4057;SDS011;2044;48.692;9.020;2022-12-08T08:03:52;38.50;;;21.90;;
4057;SDS011;2044;48.692;9.020;2022-12-08T08:06:19;27.00;;;13.63;;
4057;SDS011;2044;48.692;9.020;2022-12-08T08:08:46;46.53;;;27.53;;
4057;SDS011;2044;48.692;9.020;2022-12-08T08:11:14;32.20;;;18.10;;
4057;SDS011;2044;48.692;9.020;2022-12-08T08:13:41;24.67;;;12.00;;
4057;SDS011;2044;48.692;9.020;2022-12-08T08:16:08;28.63;;;14.07;;
4057;SDS011;2044;48.692;9.020;2022-12-08T08:18:37;37.47;;;20.87;;
4057;SDS011;2044;48.692;9.020;2022-12-08T08:21:04;23.60;;;11.20;;
4057;SDS011;2044;48.692;9.020;2022-12-08T08:23:31;26.30;;;13.00;;
4057;SDS011;2044;48.692;9.020;2022-12-08T08:25:59;20.73;;;12.27;;
4057;SDS011;2044;48.692;9.020;2022-12-08T08:28:28;19.07;;;9.80;;
4057;SDS011;2044;48.692;9.020;2022-12-08T08:30:55;21.03;;;11.53;;
4057;SDS011;2044;48.692;9.020;2022-12-08T08:33:22;25.30;;;12.20;;
4057;SDS011;2044;48.692;9.020;2022-12-08T08:35:50;23.90;;;11.50;;
4057;SDS011;2044;48.692;9.020;2022-12-08T08:38:16;15.47;;;7.80;;
4057;SDS011;2044;48.692;9.020;2022-12-08T08:40:43;15.83;;;8.57;;
4057;SDS011;2044;48.692;9.020;2022-12-08T08:43:10;26.00;;;12.70;;
4057;SDS011;2044;48.692;9.020;2022-12-08T08:45:54;22.93;;;10.53;;
4057;SDS011;2044;48.692;9.020;2022-12-08T08:48:22;15.57;;;9.13;;
4057;SDS011;2044;48.692;9.020;2022-12-08T08:50:49;22.63;;;10.57;;
4057;SDS011;2044;48.692;9.020;2022-12-08T08:53:16;18.70;;;9.30;;
4057;SDS011;2044;48.692;9.020;2022-12-08T08:55:43;18.40;;;9.63;;
4057;SDS011;2044;48.692;9.020;2022-12-08T08:58:10;18.17;;;10.00;;
4057;SDS011;2044;48.692;9.020;2022-12-08T09:00:37;19.63;;;10.00;;
4057;SDS011;2044;48.692;9.020;2022-12-08T09:03:06;26.17;;;13.97;;
4057;SDS011;2044;48.692;9.020;2022-12-08T09:05:33;20.93;;;9.70;;
4057;SDS011;2044;48.692;9.020;2022-12-08T09:07:59;18.57;;;9.20;;
4057;SDS011;2044;48.692;9.020;2022-12-08T09:10:26;28.87;;;12.40;;
4057;SDS011;2044;48.692;9.020;2022-12-08T09:12:53;15.13;;;8.70;;
4057;SDS011;2044;48.692;9.020;2022-12-08T09:15:20;15.10;;;7.03;;
4057;SDS011;2044;48.692;9.020;2022-12-08T09:17:46;18.10;;;9.53;;
4057;SDS011;2044;48.692;9.020;2022-12-08T09:23:24;17.30;;;9.40;;
4057;SDS011;2044;48.692;9.020;2022-12-08T09:25:51;14.07;;;8.90;;
4057;SDS011;2044;48.692;9.020;2022-12-08T09:28:18;17.47;;;11.13;;
4057;SDS011;2044;48.692;9.020;2022-12-08T09:30:45;13.10;;;7.43;;
4057;SDS011;2044;48.692;9.020;2022-12-08T09:33:14;12.87;;;7.53;;
4057;SDS011;2044;48.692;9.020;2022-12-08T10:02:24;9.10;;;6.40;;
4057;SDS011;2044;48.692;9.020;2022-12-08T10:05:12;9.83;;;6.10;;
4057;SDS011;2044;48.692;9.020;2022-12-08T10:07:42;10.90;;;5.10;;
4057;SDS011;2044;48.692;9.020;2022-12-08T10:16:56;7.20;;;5.20;;
4057;SDS011;2044;48.692;9.020;2022-12-08T10:19:29;7.20;;;5.27;;
4057;SDS011;2044;48.692;9.020;2022-12-08T10:21:59;9.63;;;6.20;;
4057;SDS011;2044;48.692;9.020;2022-12-08T10:24:39;9.80;;;6.47;;
4057;SDS011;2044;48.692;9.020;2022-12-08T10:27:10;9.90;;;6.00;;
4057;SDS011;2044;48.692;9.020;2022-12-08T10:29:39;28.17;;;6.40;;
4057;SDS011;2044;48.692;9.020;2022-12-08T10:32:08;7.90;;;5.93;;
4057;SDS011;2044;48.692;9.020;2022-12-08T10:37:35;7.60;;;6.03;;
4057;SDS011;2044;48.692;9.020;2022-12-08T10:40:04;8.40;;;6.27;;
4057;SDS011;2044;48.692;9.020;2022-12-08T10:42:36;7.80;;;5.83;;
4057;SDS011;2044;48.692;9.020;2022-12-08T10:45:14;9.77;;;6.37;;
4057;SDS011;2044;48.692;9.020;2022-12-08T10:47:54;12.73;;;6.10;;
4057;SDS011;2044;48.692;9.020;2022-12-08T10:50:31;13.30;;;8.70;;
4057;SDS011;2044;48.692;9.020;2022-12-08T10:53:02;8.30;;;6.83;;
4057;SDS011;2044;48.692;9.020;2022-12-08T10:55:41;8.33;;;6.83;;
4057;SDS011;2044;48.692;9.020;2022-12-08T11:00:56;9.37;;;8.40;;
4057;SDS011;2044;48.692;9.020;2022-12-08T11:03:27;8.40;;;7.70;;
4057;SDS011;2044;48.692;9.020;2022-12-08T11:05:56;12.83;;;11.00;;
4057;SDS011;2044;48.692;9.020;2022-12-08T11:08:27;12.50;;;11.20;;
4057;SDS011;2044;48.692;9.020;2022-12-08T11:10:54;10.50;;;9.40;;
4057;SDS011;2044;48.692;9.020;2022-12-08T11:13:22;11.63;;;10.53;;
4057;SDS011;2044;48.692;9.020;2022-12-08T11:15:53;11.03;;;9.60;;
4057;SDS011;2044;48.692;9.020;2022-12-08T11:18:26;9.77;;;8.87;;
4057;SDS011;2044;48.692;9.020;2022-12-08T11:20:55;9.70;;;8.70;;
4057;SDS011;2044;48.692;9.020;2022-12-08T11:23:34;10.43;;;9.30;;
4057;SDS011;2044;48.692;9.020;2022-12-08T11:26:03;10.30;;;9.43;;
4057;SDS011;2044;48.692;9.020;2022-12-08T11:28:36;16.43;;;14.83;;
4057;SDS011;2044;48.692;9.020;2022-12-08T11:31:05;9.83;;;8.93;;
4057;SDS011;2044;48.692;9.020;2022-12-08T11:33:41;10.37;;;9.37;;
4057;SDS011;2044;48.692;9.020;2022-12-08T11:36:10;11.20;;;9.73;;
4057;SDS011;2044;48.692;9.020;2022-12-08T11:38:43;10.33;;;9.50;;
4057;SDS011;2044;48.692;9.020;2022-12-08T11:41:13;12.07;;;10.53;;
4057;SDS011;2044;48.692;9.020;2022-12-08T11:43:43;14.87;;;13.60;;
4057;SDS011;2044;48.692;9.020;2022-12-08T11:46:16;11.63;;;10.70;;
4057;SDS011;2044;48.692;9.020;2022-12-08T11:48:47;12.77;;;11.73;;
4057;SDS011;2044;48.692;9.020;2022-12-08T11:51:17;13.30;;;12.20;;
4057;SDS011;2044;48.692;9.020;2022-12-08T11:53:50;12.10;;;10.97;;
4057;SDS011;2044;48.692;9.020;2022-12-08T11:56:37;19.27;;;17.53;;
4057;SDS011;2044;48.692;9.020;2022-12-08T11:59:07;37.27;;;27.27;;
4057;SDS011;2044;48.692;9.020;2022-12-08T12:01:41;18.13;;;14.33;;
4057;SDS011;2044;48.692;9.020;2022-12-08T12:04:10;14.90;;;12.37;;
4057;SDS011;2044;48.692;9.020;2022-12-08T12:09:39;21.90;;;15.00;;
4057;SDS011;2044;48.692;9.020;2022-12-08T12:12:16;12.27;;;10.77;;
4057;SDS011;2044;48.692;9.020;2022-12-08T12:15:00;12.30;;;11.10;;
4057;SDS011;2044;48.692;9.020;2022-12-08T12:17:43;10.50;;;9.47;;
4057;SDS011;2044;48.692;9.020;2022-12-08T12:20:13;13.67;;;12.40;;
4057;SDS011;2044;48.692;9.020;2022-12-08T12:22:45;14.23;;;12.50;;
4057;SDS011;2044;48.692;9.020;2022-12-08T12:25:17;10.17;;;9.27;;
4057;SDS011;2044;48.692;9.020;2022-12-08T12:27:47;9.27;;;8.37;;
4057;SDS011;2044;48.692;9.020;2022-12-08T12:30:19;9.63;;;8.67;;
4057;SDS011;2044;48.692;9.020;2022-12-08T12:32:50;12.53;;;11.33;;
4057;SDS011;2044;48.692;9.020;2022-12-08T12:35:19;12.27;;;11.27;;
4057;SDS011;2044;48.692;9.020;2022-12-08T12:37:55;10.57;;;8.50;;
4057;SDS011;2044;48.692;9.020;2022-12-08T12:40:26;9.83;;;8.90;;
4057;SDS011;2044;48.692;9.020;2022-12-08T12:43:13;10.83;;;8.33;;
4057;SDS011;2044;48.692;9.020;2022-12-08T12:48:53;11.30;;;8.63;;
4057;SDS011;2044;48.692;9.020;2022-12-08T12:51:59;9.60;;;8.80;;
4057;SDS011;2044;48.692;9.020;2022-12-08T12:54:26;9.20;;;8.07;;
4057;SDS011;2044;48.692;9.020;2022-12-08T12:56:54;9.87;;;8.93;;
4057;SDS011;2044;48.692;9.020;2022-12-08T12:59:40;15.97;;;12.40;;
4057;SDS011;2044;48.692;9.020;2022-12-08T13:02:19;11.30;;;10.30;;
4057;SDS011;2044;48.692;9.020;2022-12-08T13:04:52;10.00;;;9.10;;
4057;SDS011;2044;48.692;9.020;2022-12-08T13:07:23;10.17;;;9.20;;
4057;SDS011;2044;48.692;9.020;2022-12-08T13:09:57;10.60;;;9.60;;
4057;SDS011;2044;48.692;9.020;2022-12-08T13:12:26;9.87;;;9.00;;
4057;SDS011;2044;48.692;9.020;2022-12-08T13:14:55;9.30;;;8.50;;
4057;SDS011;2044;48.692;9.020;2022-12-08T13:17:28;10.80;;;9.87;;
4057;SDS011;2044;48.692;9.020;2022-12-08T13:19:57;13.50;;;11.30;;
4057;SDS011;2044;48.692;9.020;2022-12-08T13:22:46;9.47;;;8.67;;
4057;SDS011;2044;48.692;9.020;2022-12-08T13:25:44;12.37;;;10.90;;
4057;SDS011;2044;48.692;9.020;2022-12-08T13:28:19;9.37;;;8.47;;
4057;SDS011;2044;48.692;9.020;2022-12-08T13:30:48;10.13;;;8.63;;
4057;SDS011;2044;48.692;9.020;2022-12-08T13:33:17;14.70;;;11.43;;
4057;SDS011;2044;48.692;9.020;2022-12-08T13:35:51;7.17;;;6.33;;
4057;SDS011;2044;48.692;9.020;2022-12-08T13:38:27;9.50;;;7.83;;
4057;SDS011;2044;48.692;9.020;2022-12-08T13:40:56;10.87;;;8.73;;
4057;SDS011;2044;48.692;9.020;2022-12-08T13:43:31;18.00;;;15.27;;
4057;SDS011;2044;48.692;9.020;2022-12-08T13:46:03;19.23;;;12.77;;
4057;SDS011;2044;48.692;9.020;2022-12-08T13:48:34;9.00;;;7.20;;
4057;SDS011;2044;48.692;9.020;2022-12-08T13:51:12;15.37;;;13.30;;
4057;SDS011;2044;48.692;9.020;2022-12-08T13:53:44;12.70;;;8.73;;
4057;SDS011;2044;48.692;9.020;2022-12-08T13:56:19;21.93;;;16.60;;
4057;SDS011;2044;48.692;9.020;2022-12-08T13:58:47;14.27;;;9.80;;
4057;SDS011;2044;48.692;9.020;2022-12-08T14:01:15;10.07;;;6.60;;
4057;SDS011;2044;48.692;9.020;2022-12-08T14:03:48;11.00;;;7.47;;
4057;SDS011;2044;48.692;9.020;2022-12-08T14:06:18;10.60;;;9.00;;
4057;SDS011;2044;48.692;9.020;2022-12-08T14:08:53;8.27;;;5.57;;
4057;SDS011;2044;48.692;9.020;2022-12-08T14:11:24;13.30;;;9.27;;
4057;SDS011;2044;48.692;9.020;2022-12-08T14:14:00;12.63;;;10.30;;
4057;SDS011;2044;48.692;9.020;2022-12-08T14:16:28;13.93;;;7.47;;
4057;SDS011;2044;48.692;9.020;2022-12-08T14:19:03;10.40;;;7.80;;
4057;SDS011;2044;48.692;9.020;2022-12-08T14:21:30;13.37;;;9.40;;
4057;SDS011;2044;48.692;9.020;2022-12-08T14:24:01;12.37;;;6.83;;
4057;SDS011;2044;48.692;9.020;2022-12-08T14:26:30;8.57;;;5.50;;
4057;SDS011;2044;48.692;9.020;2022-12-08T14:28:59;12.60;;;8.90;;
4057;SDS011;2044;48.692;9.020;2022-12-08T14:31:27;18.40;;;9.37;;
4057;SDS011;2044;48.692;9.020;2022-12-08T14:33:54;9.50;;;4.80;;
4057;SDS011;2044;48.692;9.020;2022-12-08T14:36:21;10.73;;;6.73;;
4057;SDS011;2044;48.692;9.020;2022-12-08T14:38:50;6.47;;;5.10;;
4057;SDS011;2044;48.692;9.020;2022-12-08T14:41:25;5.07;;;4.57;;
4057;SDS011;2044;48.692;9.020;2022-12-08T14:43:57;7.40;;;5.33;;
4057;SDS011;2044;48.692;9.020;2022-12-08T14:46:24;8.77;;;7.57;;
4057;SDS011;2044;48.692;9.020;2022-12-08T14:48:51;6.93;;;6.20;;
4057;SDS011;2044;48.692;9.020;2022-12-08T14:51:21;5.93;;;5.37;;
4057;SDS011;2044;48.692;9.020;2022-12-08T14:53:53;13.20;;;7.23;;
4057;SDS011;2044;48.692;9.020;2022-12-08T14:56:24;6.43;;;5.80;;
4057;SDS011;2044;48.692;9.020;2022-12-08T14:59:08;5.27;;;4.77;;
4057;SDS011;2044;48.692;9.020;2022-12-08T15:01:39;8.40;;;4.63;;
4057;SDS011;2044;48.692;9.020;2022-12-08T15:04:07;5.50;;;4.80;;
4057;SDS011;2044;48.692;9.020;2022-12-08T15:06:44;7.17;;;5.00;;
4057;SDS011;2044;48.692;9.020;2022-12-08T15:09:16;7.47;;;5.40;;
4057;SDS011;2044;48.692;9.020;2022-12-08T15:12:06;6.00;;;5.37;;
4057;SDS011;2044;48.692;9.020;2022-12-08T15:14:53;5.33;;;4.17;;
4057;SDS011;2044;48.692;9.020;2022-12-08T15:17:28;6.37;;;5.00;;
4057;SDS011;2044;48.692;9.020;2022-12-08T15:19:59;4.83;;;3.63;;
4057;SDS011;2044;48.692;9.020;2022-12-08T15:22:26;5.97;;;4.50;;
4057;SDS011;2044;48.692;9.020;2022-12-08T15:25:00;6.47;;;4.63;;
4057;SDS011;2044;48.692;9.020;2022-12-08T15:27:32;8.13;;;5.73;;
4057;SDS011;2044;48.692;9.020;2022-12-08T15:30:00;9.97;;;7.97;;
4057;SDS011;2044;48.692;9.020;2022-12-08T15:32:33;6.97;;;5.20;;
4057;SDS011;2044;48.692;9.020;2022-12-08T15:35:01;8.17;;;6.83;;
4057;SDS011;2044;48.692;9.020;2022-12-08T15:37:28;20.57;;;13.73;;
4057;SDS011;2044;48.692;9.020;2022-12-08T15:39:56;18.37;;;9.97;;
4057;SDS011;2044;48.692;9.020;2022-12-08T15:42:23;11.20;;;7.50;;
4057;SDS011;2044;48.692;9.020;2022-12-08T15:44:52;12.17;;;8.53;;
4057;SDS011;2044;48.692;9.020;2022-12-08T15:47:30;18.40;;;11.97;;
4057;SDS011;2044;48.692;9.020;2022-12-08T15:49:58;22.80;;;20.47;;
4057;SDS011;2044;48.692;9.020;2022-12-08T15:52:25;16.30;;;11.77;;
4057;SDS011;2044;48.692;9.020;2022-12-08T15:54:51;14.67;;;8.60;;
4057;SDS011;2044;48.692;9.020;2022-12-08T15:57:19;13.00;;;11.20;;
4057;SDS011;2044;48.692;9.020;2022-12-08T15:59:48;13.07;;;8.57;;
4057;SDS011;2044;48.692;9.020;2022-12-08T16:02:17;9.33;;;5.37;;
4057;SDS011;2044;48.692;9.020;2022-12-08T16:04:44;5.60;;;4.60;;
4057;SDS011;2044;48.692;9.020;2022-12-08T16:07:14;10.33;;;8.47;;
4057;SDS011;2044;48.692;9.020;2022-12-08T16:09:48;8.87;;;5.70;;